createdAt,value
2022-10-01T00:00:26.342Z,51.291183
2022-10-01T00:01:26.370Z,51.291180
2022-10-01T00:02:26.330Z,51.291199
2022-10-01T00:03:26.289Z,51.291218
2022-10-01T00:04:26.291Z,51.291199
2022-10-01T00:05:26.311Z,51.291256
2022-10-01T00:06:26.269Z,51.291256
2022-10-01T00:07:26.256Z,51.291210
2022-10-01T00:08:26.268Z,51.291187
2022-10-01T00:09:26.232Z,51.291180
2022-10-01T00:10:26.252Z,51.291187
2022-10-01T00:11:26.216Z,51.291168
2022-10-01T00:12:26.258Z,51.291203
2022-10-01T00:13:26.206Z,51.291264
2022-10-01T00:14:26.174Z,51.291218
2022-10-01T00:15:26.190Z,51.291206
2022-10-01T00:16:26.202Z,51.291214
2022-10-01T00:17:26.150Z,51.291328
2022-10-01T00:18:26.142Z,51.291283
2022-10-01T00:19:26.124Z,51.291164
2022-10-01T00:20:27.137Z,51.291283
2022-10-01T00:21:26.133Z,51.291164
2022-10-01T00:22:26.096Z,51.291145
2022-10-01T00:23:26.102Z,51.291168
2022-10-01T00:24:26.085Z,51.291206
2022-10-01T00:25:26.080Z,51.291248
2022-10-01T00:26:26.100Z,51.291367
2022-10-01T00:27:26.026Z,51.291351
2022-10-01T00:28:26.092Z,51.291431
2022-10-01T00:29:26.022Z,51.291454
2022-10-01T00:30:25.993Z,51.291580
2022-10-01T00:31:26.089Z,51.291454
2022-10-01T00:32:26.031Z,51.291203
2022-10-01T00:33:25.953Z,51.291298
2022-10-01T00:34:25.946Z,51.291264
2022-10-01T00:35:25.954Z,51.291592
2022-10-01T00:36:25.921Z,51.291458
2022-10-01T00:37:25.928Z,51.291382
2022-10-01T00:38:25.909Z,51.291447
2022-10-01T00:39:25.902Z,51.291378
2022-10-01T00:40:25.881Z,51.291409
2022-10-01T00:41:25.890Z,51.291359
2022-10-01T00:42:25.894Z,51.291298
2022-10-01T00:43:25.847Z,51.291401
2022-10-01T00:44:25.841Z,51.291515
2022-10-01T00:45:25.827Z,51.291759
2022-10-01T00:46:25.816Z,51.291710
2022-10-01T00:47:25.830Z,51.291470
2022-10-01T00:48:25.789Z,51.291344
2022-10-01T00:49:25.762Z,51.291206
2022-10-01T00:50:25.784Z,51.291176
2022-10-01T00:51:26.744Z,51.291195
2022-10-01T00:52:25.740Z,51.291161
2022-10-01T00:53:25.817Z,51.291164
2022-10-01T00:54:25.722Z,51.291332
2022-10-01T00:55:25.712Z,51.291077
2022-10-01T00:56:25.706Z,51.291325
2022-10-01T00:57:25.687Z,51.291325
2022-10-01T00:58:25.715Z,51.291187
2022-10-01T00:59:25.676Z,51.291183
2022-10-01T01:00:25.657Z,51.291065
2022-10-01T01:01:25.686Z,51.291187
2022-10-01T01:02:25.725Z,51.291168
2022-10-01T01:03:25.608Z,51.291100
2022-10-01T01:04:25.638Z,51.291271
2022-10-01T01:05:25.620Z,51.291039
2022-10-01T01:06:25.578Z,51.291088
2022-10-01T01:07:25.591Z,51.291130
2022-10-01T01:08:25.579Z,51.291225
2022-10-01T01:09:25.592Z,51.291351
2022-10-01T01:10:25.594Z,51.291321
2022-10-01T01:11:25.543Z,51.291130
2022-10-01T01:12:25.524Z,51.291260
2022-10-01T01:13:25.522Z,51.291176
2022-10-01T01:14:25.541Z,51.291092
2022-10-01T01:15:25.507Z,51.291317
2022-10-01T01:16:25.513Z,51.291355
2022-10-01T01:17:25.468Z,51.291214
2022-10-01T01:18:25.458Z,51.290565
2022-10-01T01:19:25.462Z,51.290977
2022-10-01T01:20:25.460Z,51.291237
2022-10-01T01:21:25.429Z,51.290871
2022-10-01T01:22:25.407Z,51.291214
2022-10-01T01:23:25.398Z,51.291039
2022-10-01T01:24:25.391Z,51.291260
2022-10-01T01:25:25.529Z,51.291275
2022-10-01T01:26:25.356Z,51.291340
2022-10-01T01:27:25.707Z,51.291206
2022-10-01T01:28:25.391Z,51.291504
2022-10-01T01:29:25.331Z,51.291969
2022-10-01T01:30:25.363Z,51.291248
2022-10-01T01:31:25.382Z,51.291092
2022-10-01T01:32:25.295Z,51.291100
2022-10-01T01:33:25.292Z,51.290775
2022-10-01T01:34:25.283Z,51.290928
2022-10-01T01:35:25.265Z,51.291328
2022-10-01T01:36:25.586Z,51.291199
2022-10-01T01:37:25.262Z,51.291248
2022-10-01T01:38:25.233Z,51.291252
2022-10-01T01:39:25.238Z,51.291275
2022-10-01T01:40:25.218Z,51.291153
2022-10-01T01:41:25.241Z,51.291191
2022-10-01T01:42:25.231Z,51.291145
2022-10-01T01:43:25.162Z,51.291164
2022-10-01T01:44:26.164Z,51.291130
2022-10-01T01:45:25.145Z,51.291180
2022-10-01T01:46:25.181Z,51.291206
2022-10-01T01:47:25.127Z,51.290833
2022-10-01T01:48:25.106Z,51.290813
2022-10-01T01:49:25.114Z,51.290775
2022-10-01T01:50:25.095Z,51.290886
2022-10-01T01:51:25.073Z,51.291229
2022-10-01T01:52:25.117Z,51.291252
2022-10-01T01:53:25.053Z,51.291328
2022-10-01T01:54:25.042Z,51.291290
2022-10-01T01:55:25.038Z,51.291267
2022-10-01T01:56:26.024Z,51.291325
2022-10-01T01:57:25.044Z,51.291286
2022-10-01T01:58:25.014Z,51.291107
2022-10-01T01:59:25.002Z,51.291168
2022-10-01T02:00:24.985Z,51.291222
2022-10-01T02:01:25.034Z,51.291687
2022-10-01T02:02:25.017Z,51.291298
2022-10-01T02:03:24.953Z,51.291225
2022-10-01T02:04:24.949Z,51.291203
2022-10-01T02:05:24.933Z,51.291183
2022-10-01T02:06:24.944Z,51.291225
2022-10-01T02:07:24.983Z,51.291279
2022-10-01T02:08:24.904Z,51.291183
2022-10-01T02:09:24.894Z,51.291248
2022-10-01T02:10:24.928Z,51.291309
2022-10-01T02:11:24.881Z,51.291412
2022-10-01T02:12:24.875Z,51.291439
2022-10-01T02:13:24.884Z,51.291321
2022-10-01T02:14:24.834Z,51.291279
2022-10-01T02:15:24.820Z,51.291233
2022-10-01T02:16:24.862Z,51.291142
2022-10-01T02:17:24.803Z,51.291172
2022-10-01T02:18:24.816Z,51.291328
2022-10-01T02:19:24.780Z,51.291958
2022-10-01T02:20:24.770Z,51.293751
2022-10-01T02:21:24.743Z,51.293732
2022-10-01T02:22:25.413Z,51.293732
2022-10-01T02:23:24.757Z,51.293629
2022-10-01T02:24:24.716Z,51.293499
2022-10-01T02:25:24.712Z,51.293449
2022-10-01T02:26:24.705Z,51.293266
2022-10-01T02:27:24.686Z,51.293293
2022-10-01T02:28:24.738Z,51.293346
2022-10-01T02:29:24.659Z,51.294079
2022-10-01T02:30:24.635Z,51.295208
2022-10-01T02:31:25.301Z,51.294998
2022-10-01T02:32:24.625Z,51.294552
2022-10-01T02:33:24.649Z,51.294113
2022-10-01T02:34:24.603Z,51.293797
2022-10-01T02:35:24.584Z,51.293709
2022-10-01T02:36:24.583Z,51.293697
2022-10-01T02:37:24.569Z,51.293564
2022-10-01T02:38:24.598Z,51.293373
2022-10-01T02:39:24.550Z,51.293205
2022-10-01T02:40:24.525Z,51.292889
2022-10-01T02:41:24.516Z,51.292881
2022-10-01T02:42:24.516Z,51.292721
2022-10-01T02:43:24.488Z,51.292545
2022-10-01T02:44:24.547Z,51.292377
2022-10-01T02:45:24.488Z,51.292179
2022-10-01T02:46:24.489Z,51.292187
2022-10-01T02:47:24.454Z,51.292187
2022-10-01T02:48:24.453Z,51.292122
2022-10-01T02:49:28.583Z,51.292328
2022-10-01T02:50:24.421Z,51.292385
2022-10-01T02:51:24.413Z,51.292198
2022-10-01T02:52:24.399Z,51.292194
2022-10-01T02:53:24.382Z,51.292194
2022-10-01T02:54:24.386Z,51.291420
2022-10-01T02:55:24.397Z,51.291218
2022-10-01T02:56:24.368Z,51.289776
2022-10-01T02:57:24.372Z,51.290127
2022-10-01T02:58:24.351Z,51.291008
2022-10-01T02:59:24.326Z,51.291439
2022-10-01T03:00:24.382Z,51.291122
2022-10-01T03:01:24.365Z,51.291203
2022-10-01T03:02:24.352Z,51.291218
2022-10-01T03:03:24.298Z,51.291183
2022-10-01T03:04:24.280Z,51.291374
2022-10-01T03:05:24.301Z,51.291504
2022-10-01T03:06:24.255Z,51.291260
2022-10-01T03:07:24.234Z,51.291248
2022-10-01T03:08:24.245Z,51.291275
2022-10-01T03:09:24.226Z,51.291298
2022-10-01T03:10:24.207Z,51.291294
2022-10-01T03:11:24.268Z,51.291245
2022-10-01T03:12:25.197Z,51.291214
2022-10-01T03:13:24.180Z,51.291172
2022-10-01T03:14:24.195Z,51.291138
2022-10-01T03:15:24.156Z,51.291210
2022-10-01T03:16:24.205Z,51.291294
2022-10-01T03:17:24.147Z,51.291374
2022-10-01T03:18:24.122Z,51.291336
2022-10-01T03:19:24.118Z,51.291290
2022-10-01T03:20:24.112Z,51.291302
2022-10-01T03:21:24.084Z,51.291302
2022-10-01T03:22:24.125Z,51.291161
2022-10-01T03:23:24.124Z,51.291077
2022-10-01T03:24:24.076Z,51.291183
2022-10-01T03:25:24.046Z,51.291241
2022-10-01T03:26:24.031Z,51.291176
2022-10-01T03:27:24.097Z,51.291176
2022-10-01T03:28:24.027Z,51.291191
2022-10-01T03:29:24.002Z,51.291195
2022-10-01T03:30:24.010Z,51.291161
2022-10-01T03:31:24.060Z,51.291088
2022-10-01T03:32:24.005Z,51.291111
2022-10-01T03:33:23.994Z,51.291119
2022-10-01T03:34:23.950Z,51.291054
2022-10-01T03:35:23.930Z,51.290928
2022-10-01T03:36:23.938Z,51.291046
2022-10-01T03:37:23.910Z,51.291122
2022-10-01T03:38:24.931Z,51.290974
2022-10-01T03:39:23.898Z,51.291035
2022-10-01T03:40:23.897Z,51.291103
2022-10-01T03:41:23.874Z,51.291130
2022-10-01T03:42:23.864Z,51.291176
2022-10-01T03:43:23.879Z,51.291161
2022-10-01T03:44:23.816Z,51.291283
2022-10-01T03:45:23.858Z,51.291161
2022-10-01T03:46:23.806Z,51.291096
2022-10-01T03:47:23.787Z,51.291042
2022-10-01T03:48:23.809Z,51.291142
2022-10-01T03:49:23.783Z,51.291218
2022-10-01T03:50:23.754Z,51.291588
2022-10-01T03:51:23.746Z,51.291191
2022-10-01T03:52:23.723Z,51.291355
2022-10-01T03:53:24.742Z,51.291245
2022-10-01T03:54:23.700Z,51.291275
2022-10-01T03:55:23.686Z,51.291103
2022-10-01T03:56:23.674Z,51.291145
2022-10-01T03:57:23.682Z,51.291225
2022-10-01T03:58:23.667Z,51.291199
2022-10-01T03:59:23.688Z,51.291256
2022-10-01T04:00:23.641Z,51.291168
2022-10-01T04:01:23.789Z,51.291195
2022-10-01T04:02:23.722Z,51.291206
2022-10-01T04:03:23.607Z,51.291195
2022-10-01T04:04:23.642Z,51.291183
2022-10-01T04:05:23.585Z,51.291248
2022-10-01T04:06:23.575Z,51.291290
2022-10-01T04:07:23.567Z,51.291161
2022-10-01T04:08:24.515Z,51.291218
2022-10-01T04:09:23.539Z,51.291214
2022-10-01T04:10:23.559Z,51.291157
2022-10-01T04:11:23.523Z,51.291222
2022-10-01T04:12:23.506Z,51.291130
2022-10-01T04:13:23.517Z,51.290825
2022-10-01T04:14:23.488Z,51.290916
2022-10-01T04:15:23.517Z,51.291054
2022-10-01T04:16:23.629Z,51.291080
2022-10-01T04:17:23.454Z,51.291103
2022-10-01T04:18:23.442Z,51.291328
2022-10-01T04:19:23.417Z,51.291317
2022-10-01T04:20:23.438Z,51.291431
2022-10-01T04:21:23.491Z,51.291309
2022-10-01T04:22:23.396Z,51.291264
2022-10-01T04:23:23.381Z,51.291306
2022-10-01T04:24:23.384Z,51.291195
2022-10-01T04:25:23.366Z,51.291199
2022-10-01T04:26:23.373Z,51.291187
2022-10-01T04:27:23.354Z,51.291279
2022-10-01T04:28:23.383Z,51.291229
2022-10-01T04:29:23.325Z,51.291233
2022-10-01T04:30:23.319Z,51.291214
2022-10-01T04:31:23.385Z,51.291225
2022-10-01T04:32:23.288Z,51.291286
2022-10-01T04:33:23.728Z,51.291183
2022-10-01T04:34:23.283Z,51.291096
2022-10-01T04:35:23.276Z,51.291267
2022-10-01T04:36:23.248Z,51.291111
2022-10-01T04:37:23.247Z,51.291172
2022-10-01T04:38:23.230Z,51.291370
2022-10-01T04:39:23.231Z,51.291313
2022-10-01T04:40:23.217Z,51.291222
2022-10-01T04:41:23.221Z,51.291199
2022-10-01T04:42:23.200Z,51.291332
2022-10-01T04:43:23.174Z,51.291237
2022-10-01T04:44:23.184Z,51.291283
2022-10-01T04:45:23.149Z,51.291157
2022-10-01T04:46:23.213Z,51.291214
2022-10-01T04:47:23.208Z,51.291332
2022-10-01T04:48:23.121Z,51.291035
2022-10-01T04:49:23.106Z,51.291191
2022-10-01T04:50:23.103Z,51.291145
2022-10-01T04:51:23.083Z,51.291229
2022-10-01T04:52:23.121Z,51.291283
2022-10-01T04:53:23.078Z,51.291401
2022-10-01T04:54:23.056Z,51.291317
2022-10-01T04:55:23.049Z,51.291138
2022-10-01T04:56:23.026Z,51.291245
2022-10-01T04:57:23.042Z,51.291336
2022-10-01T04:58:23.019Z,51.291336
2022-10-01T04:59:23.008Z,51.291302
2022-10-01T05:00:22.975Z,51.291248
2022-10-01T05:01:23.044Z,51.291344
2022-10-01T05:02:22.986Z,51.291245
2022-10-01T05:03:22.981Z,51.291271
2022-10-01T05:04:22.944Z,51.291317
2022-10-01T05:05:22.941Z,51.291351
2022-10-01T05:06:22.907Z,51.291306
2022-10-01T05:07:22.896Z,51.291325
2022-10-01T05:08:22.910Z,51.291336
2022-10-01T05:09:22.870Z,51.291359
2022-10-01T05:10:22.868Z,51.291019
2022-10-01T05:11:22.879Z,51.290913
2022-10-01T05:12:24.628Z,51.291252
2022-10-01T05:13:22.830Z,51.290939
2022-10-01T05:14:22.864Z,51.290993
2022-10-01T05:15:22.808Z,51.290981
2022-10-01T05:16:23.193Z,51.291035
2022-10-01T05:17:22.790Z,51.291176
2022-10-01T05:18:22.781Z,51.291164
2022-10-01T05:19:25.292Z,51.291302
2022-10-01T05:20:22.733Z,51.291317
2022-10-01T05:21:22.723Z,51.291252
2022-10-01T05:22:22.723Z,51.291275
2022-10-01T05:23:23.383Z,51.291275
2022-10-01T05:24:24.086Z,51.291229
2022-10-01T05:25:23.094Z,51.291325
2022-10-01T05:26:22.731Z,51.291370
2022-10-01T05:27:22.703Z,51.291336
2022-10-01T05:28:24.585Z,51.291283
2022-10-01T05:29:22.675Z,51.291237
2022-10-01T05:30:23.511Z,51.291279
2022-10-01T05:31:22.721Z,51.291313
2022-10-01T05:32:22.648Z,51.291233
2022-10-01T05:33:22.632Z,51.291355
2022-10-01T05:34:22.603Z,51.291256
2022-10-01T05:35:22.656Z,51.291180
2022-10-01T05:36:22.574Z,51.291126
2022-10-01T05:37:23.967Z,51.291237
2022-10-01T05:38:22.596Z,51.291233
2022-10-01T05:39:22.574Z,51.291256
2022-10-01T05:40:22.558Z,51.291080
2022-10-01T05:41:22.553Z,51.290592
2022-10-01T05:42:22.539Z,51.290905
2022-10-01T05:43:22.505Z,51.291439
2022-10-01T05:44:22.487Z,51.291309
2022-10-01T05:45:22.500Z,51.291203
2022-10-01T05:46:22.485Z,51.291058
2022-10-01T05:47:22.492Z,51.291245
2022-10-01T05:48:22.479Z,51.291183
2022-10-01T05:49:22.450Z,51.291256
2022-10-01T05:50:22.646Z,51.291191
2022-10-01T05:51:22.492Z,51.291267
2022-10-01T05:52:22.434Z,51.291332
2022-10-01T05:53:22.404Z,51.291271
2022-10-01T05:54:22.411Z,51.291290
2022-10-01T05:55:22.379Z,51.291218
2022-10-01T05:56:22.421Z,51.291302
2022-10-01T05:57:22.360Z,51.291149
2022-10-01T05:58:22.361Z,51.291218
2022-10-01T05:59:22.347Z,51.291359
2022-10-01T06:00:22.321Z,51.291397
2022-10-01T06:01:22.313Z,51.291416
2022-10-01T06:02:22.526Z,51.291348
2022-10-01T06:03:22.353Z,51.291473
2022-10-01T06:04:22.297Z,51.291470
2022-10-01T06:05:22.289Z,51.291119
2022-10-01T06:06:22.261Z,51.291340
2022-10-01T06:07:22.340Z,51.291321
2022-10-01T06:08:22.243Z,51.291245
2022-10-01T06:09:22.216Z,51.291348
2022-10-01T06:10:22.218Z,51.291248
2022-10-01T06:11:22.870Z,51.291130
2022-10-01T06:12:23.215Z,51.291248
2022-10-01T06:13:22.214Z,51.291096
2022-10-01T06:14:22.176Z,51.291115
2022-10-01T06:15:22.165Z,51.291187
2022-10-01T06:16:22.254Z,51.291245
2022-10-01T06:17:22.136Z,51.291279
2022-10-01T06:18:22.154Z,51.291191
2022-10-01T06:19:22.133Z,51.292587
2022-10-01T06:20:22.704Z,51.291481
2022-10-01T06:21:22.106Z,51.291336
2022-10-01T06:22:22.144Z,51.291206
2022-10-01T06:23:22.102Z,51.291203
2022-10-01T06:24:22.303Z,51.291187
2022-10-01T06:25:22.485Z,51.291252
2022-10-01T06:26:22.054Z,51.291306
2022-10-01T06:27:22.050Z,51.291267
2022-10-01T06:28:22.203Z,51.291302
2022-10-01T06:29:22.014Z,51.291229
2022-10-01T06:30:22.015Z,51.291191
2022-10-01T06:31:22.045Z,51.291267
2022-10-01T06:32:21.979Z,51.291260
2022-10-01T06:33:22.006Z,51.291306
2022-10-01T06:34:22.051Z,51.291306
2022-10-01T06:35:21.944Z,51.291370
2022-10-01T06:36:21.933Z,51.291256
2022-10-01T06:37:21.936Z,51.291313
2022-10-01T06:38:21.962Z,51.291222
2022-10-01T06:39:21.932Z,51.291225
2022-10-01T06:40:21.907Z,51.291264
2022-10-01T06:41:21.876Z,51.291199
2022-10-01T06:42:21.881Z,51.291225
2022-10-01T06:43:21.901Z,51.291328
2022-10-01T06:44:21.891Z,51.291237
2022-10-01T06:45:21.848Z,51.291267
2022-10-01T06:46:21.899Z,51.291309
2022-10-01T06:47:21.833Z,51.291256
2022-10-01T06:48:23.032Z,51.291203
2022-10-01T06:49:21.834Z,51.291252
2022-10-01T06:50:21.889Z,51.291252
2022-10-01T06:51:21.782Z,51.291229
2022-10-01T06:52:21.757Z,51.291237
2022-10-01T06:53:21.774Z,51.291183
2022-10-01T06:54:21.771Z,51.291168
2022-10-01T06:55:21.723Z,51.291103
2022-10-01T06:56:21.711Z,51.291203
2022-10-01T06:57:22.716Z,51.291233
2022-10-01T06:58:21.721Z,51.291218
2022-10-01T06:59:21.693Z,51.291138
2022-10-01T07:00:21.661Z,51.291111
2022-10-01T07:01:21.691Z,51.291172
2022-10-01T07:02:21.746Z,51.291142
2022-10-01T07:03:21.650Z,51.291267
2022-10-01T07:04:21.694Z,51.291302
2022-10-01T07:05:21.629Z,51.291290
2022-10-01T07:06:21.637Z,51.291260
2022-10-01T07:07:21.580Z,51.291271
2022-10-01T07:08:21.623Z,51.291332
2022-10-01T07:09:21.603Z,51.291363
2022-10-01T07:10:21.562Z,51.291397
2022-10-01T07:11:21.561Z,51.291256
2022-10-01T07:12:21.529Z,51.291260
2022-10-01T07:13:21.552Z,51.291183
2022-10-01T07:14:21.567Z,51.291187
2022-10-01T07:15:21.492Z,51.291122
2022-10-01T07:16:21.524Z,51.291142
2022-10-01T07:17:21.477Z,51.291225
2022-10-01T07:18:21.491Z,51.291328
2022-10-01T07:19:21.491Z,51.291241
2022-10-01T07:20:21.437Z,51.291042
2022-10-01T07:21:21.437Z,51.290874
2022-10-01T07:22:21.443Z,51.291214
2022-10-01T07:23:21.431Z,51.291309
2022-10-01T07:24:21.416Z,51.291233
2022-10-01T07:25:21.404Z,51.291142
2022-10-01T07:26:21.376Z,51.291142
2022-10-01T07:27:21.376Z,51.291161
2022-10-01T07:28:21.455Z,51.291073
2022-10-01T07:29:21.351Z,51.291096
2022-10-01T07:30:21.369Z,51.290989
2022-10-01T08:44:22.289Z,51.293743
2022-10-01T08:45:22.286Z,51.293770
2022-10-01T08:46:22.255Z,51.293770
2022-10-01T08:47:22.416Z,51.293770
2022-10-01T08:48:22.296Z,51.293053
2022-10-01T08:49:22.223Z,51.293053
2022-10-01T08:50:22.223Z,51.293053
2022-10-01T08:51:22.218Z,51.293053
2022-10-01T08:52:22.193Z,51.293053
2022-10-01T08:53:22.175Z,51.293053
2022-10-01T08:54:22.205Z,51.293053
2022-10-01T08:55:22.153Z,51.293053
2022-10-01T08:56:22.149Z,51.293053
2022-10-01T08:57:22.130Z,51.293053
2022-10-01T08:58:22.119Z,51.293053
2022-10-01T08:59:27.238Z,51.293053
2022-10-01T09:00:22.107Z,51.293053
2022-10-01T09:01:22.159Z,51.293053
2022-10-01T09:02:22.094Z,51.293053
2022-10-01T09:03:22.079Z,51.293053
2022-10-01T09:04:22.123Z,51.293053
2022-10-01T09:05:22.115Z,51.293053
2022-10-01T09:06:22.045Z,51.293053
2022-10-01T09:07:22.029Z,51.293053
2022-10-01T09:08:22.027Z,51.293053
2022-10-01T09:09:22.006Z,51.293053
2022-10-01T09:10:22.024Z,51.293053
2022-10-01T09:11:22.002Z,51.293053
2022-10-01T09:12:21.969Z,51.293053
2022-10-01T09:13:21.959Z,51.291336
2022-10-01T09:14:22.010Z,51.291206
2022-10-01T09:15:21.938Z,51.291176
2022-10-01T09:16:22.050Z,51.291302
2022-10-01T09:17:21.927Z,51.291340
2022-10-01T09:18:21.894Z,51.291122
2022-10-01T09:19:21.908Z,51.291203
2022-10-01T09:20:21.888Z,51.291039
2022-10-01T09:21:21.889Z,51.291191
2022-10-01T09:22:21.862Z,51.291294
2022-10-01T09:23:21.855Z,51.291203
2022-10-01T09:24:21.836Z,51.291039
2022-10-01T09:25:21.827Z,51.291145
2022-10-01T09:26:25.602Z,51.291183
2022-10-01T09:27:21.798Z,51.291248
2022-10-01T09:28:21.854Z,51.291393
2022-10-01T09:29:21.768Z,51.291100
2022-10-01T09:30:21.783Z,51.291233
2022-10-01T09:31:21.792Z,51.291168
2022-10-01T09:32:21.770Z,51.291142
2022-10-01T09:33:21.739Z,51.291210
2022-10-01T09:34:21.734Z,51.291245
2022-10-01T09:35:21.737Z,51.291367
2022-10-01T09:36:21.709Z,51.291348
2022-10-01T09:37:21.722Z,51.291229
2022-10-01T09:38:21.691Z,51.291134
2022-10-01T09:39:21.672Z,51.291065
2022-10-01T09:40:21.664Z,51.291172
2022-10-01T09:41:21.643Z,51.291183
2022-10-01T09:42:21.660Z,51.291313
2022-10-01T09:43:21.626Z,51.291256
2022-10-01T09:44:21.611Z,51.291508
2022-10-01T09:45:21.597Z,51.291142
2022-10-01T09:46:21.627Z,51.291210
2022-10-01T09:47:21.620Z,51.291203
2022-10-01T09:48:21.587Z,51.291286
2022-10-01T09:49:21.582Z,51.291328
2022-10-01T09:50:21.546Z,51.291294
2022-10-01T09:51:21.519Z,51.291306
2022-10-01T09:52:21.595Z,51.290951
2022-10-01T09:53:21.514Z,51.291115
2022-10-01T09:54:21.509Z,51.291016
2022-10-01T09:55:21.509Z,51.291069
2022-10-01T09:56:21.496Z,51.291195
2022-10-01T09:57:21.480Z,51.291183
2022-10-01T09:58:21.499Z,51.291306
2022-10-01T09:59:21.466Z,51.291252
2022-10-01T10:00:21.456Z,51.291138
2022-10-01T10:01:21.438Z,51.291214
2022-10-01T10:02:21.569Z,51.291378
2022-10-01T10:03:21.561Z,51.291256
2022-10-01T10:04:21.402Z,51.291145
2022-10-01T10:05:21.389Z,51.291180
2022-10-01T10:06:21.421Z,51.291279
2022-10-01T10:07:21.364Z,51.291149
2022-10-01T10:08:21.355Z,51.291225
2022-10-01T10:09:21.689Z,51.291218
2022-10-01T10:10:25.438Z,51.291145
2022-10-01T10:11:21.314Z,51.291489
2022-10-01T10:12:21.349Z,51.291271
2022-10-01T10:13:21.303Z,51.291222
2022-10-01T10:14:33.554Z,51.291321
2022-10-01T10:15:22.277Z,51.291180
2022-10-01T10:16:21.344Z,51.291180
2022-10-01T10:17:21.240Z,51.291245
2022-10-01T10:18:23.919Z,51.291302
2022-10-01T10:19:22.208Z,51.291264
2022-10-01T10:20:21.240Z,51.291229
2022-10-01T10:21:21.183Z,51.291267
2022-10-01T10:22:21.178Z,51.291172
2022-10-01T10:23:21.172Z,51.291168
2022-10-01T10:24:21.156Z,51.291138
2022-10-01T10:25:21.181Z,51.291065
2022-10-01T10:26:21.142Z,51.291561
2022-10-01T10:27:21.129Z,51.291592
2022-10-01T10:28:21.172Z,51.291393
2022-10-01T10:29:21.111Z,51.291157
2022-10-01T10:30:21.093Z,51.291206
2022-10-01T10:31:21.162Z,51.291306
2022-10-01T10:32:21.064Z,51.291195
2022-10-01T10:33:21.053Z,51.290913
2022-10-01T10:34:21.039Z,51.290730
2022-10-01T10:35:21.029Z,51.291218
2022-10-01T10:36:21.036Z,51.291119
2022-10-01T10:37:20.997Z,51.290577
2022-10-01T10:38:21.002Z,51.290611
2022-10-01T10:39:21.004Z,51.291004
2022-10-01T10:40:22.756Z,51.291298
2022-10-01T10:41:20.989Z,51.291222
2022-10-01T10:42:20.941Z,51.291405
2022-10-01T10:43:20.938Z,51.291115
2022-10-01T10:44:20.947Z,51.291386
2022-10-01T10:45:20.934Z,51.291206
2022-10-01T10:46:20.962Z,51.291271
2022-10-01T10:47:20.898Z,51.291195
2022-10-01T10:48:20.872Z,51.291176
2022-10-01T10:49:20.866Z,51.291203
2022-10-01T10:50:20.873Z,51.291298
2022-10-01T10:51:20.855Z,51.291306
2022-10-01T10:52:20.832Z,51.291256
2022-10-01T10:53:20.826Z,51.291176
2022-10-01T10:54:20.815Z,51.291214
2022-10-01T10:55:20.800Z,51.291218
2022-10-01T10:56:20.823Z,51.291180
2022-10-01T10:57:20.770Z,51.291176
2022-10-01T10:58:20.763Z,51.291187
2022-10-01T10:59:20.757Z,51.291203
2022-10-01T11:00:20.744Z,51.291206
2022-10-01T11:01:20.775Z,51.291225
2022-10-01T11:02:20.746Z,51.291225
2022-10-01T11:03:20.705Z,51.291149
2022-10-01T11:04:21.373Z,51.291206
2022-10-01T11:05:20.693Z,51.291248
2022-10-01T11:06:20.683Z,51.291229
2022-10-01T11:07:20.653Z,51.291210
2022-10-01T11:08:20.660Z,51.291210
2022-10-01T11:09:20.642Z,51.291103
2022-10-01T11:10:20.614Z,51.291210
2022-10-01T11:11:20.646Z,51.291164
2022-10-01T11:12:20.597Z,51.291195
2022-10-01T11:13:21.195Z,51.291180
2022-10-01T11:14:23.602Z,51.291275
2022-10-01T11:15:21.560Z,51.291245
2022-10-01T11:16:20.633Z,51.291206
2022-10-01T11:17:20.535Z,51.291233
2022-10-01T11:18:20.547Z,51.291168
2022-10-01T11:19:20.540Z,51.291149
2022-10-01T11:20:21.168Z,51.291199
2022-10-01T11:21:20.493Z,51.291210
2022-10-01T11:22:20.532Z,51.291172
2022-10-01T11:23:20.466Z,51.291195
2022-10-01T11:24:20.477Z,51.291271
2022-10-01T11:25:20.443Z,51.291279
2022-10-01T11:26:20.456Z,51.291252
2022-10-01T11:27:20.468Z,51.291050
2022-10-01T11:28:20.482Z,51.290924
2022-10-01T11:29:20.403Z,51.291153
2022-10-01T11:30:20.382Z,51.291214
2022-10-01T13:45:06.283Z,51.291298
2022-10-01T13:46:06.256Z,51.291225
2022-10-01T13:47:06.211Z,51.291199
2022-10-01T13:48:06.236Z,51.291206
2022-10-01T13:49:06.218Z,51.291286
2022-10-01T13:50:06.168Z,51.291298
2022-10-01T13:51:06.211Z,51.291290
2022-10-01T13:52:06.215Z,51.290932
2022-10-01T13:53:06.134Z,51.291065
2022-10-01T13:54:06.175Z,51.290825
2022-10-01T13:55:06.192Z,51.291210
2022-10-01T13:56:06.112Z,51.291340
2022-10-01T13:57:06.092Z,51.290726
2022-10-01T13:58:06.109Z,51.291004
2022-10-01T13:59:06.179Z,51.291328
2022-10-01T14:00:06.122Z,51.291279
2022-10-01T14:01:06.185Z,51.291420
2022-10-01T14:02:06.209Z,51.291382
2022-10-01T14:03:06.207Z,51.291470
2022-10-01T14:04:06.110Z,51.291321
2022-10-01T14:05:06.044Z,51.291309
2022-10-01T14:06:06.027Z,51.291267
2022-10-01T14:07:06.022Z,51.290623
2022-10-01T14:08:09.575Z,51.288830
2022-10-01T14:09:06.030Z,51.290947
2022-10-01T14:10:05.979Z,51.291466
2022-10-01T14:11:05.975Z,51.291458
2022-10-01T14:12:05.994Z,51.291187
2022-10-01T14:13:05.942Z,51.291142
2022-10-01T14:14:05.952Z,51.291222
2022-10-01T14:15:05.917Z,51.291424
2022-10-01T14:16:05.930Z,51.291096
2022-10-01T14:17:05.893Z,51.291210
2022-10-01T14:18:05.876Z,51.291164
2022-10-01T14:19:05.997Z,51.291183
2022-10-01T14:20:05.984Z,51.291283
2022-10-01T14:21:05.884Z,51.291294
2022-10-01T14:22:05.862Z,51.291302
2022-10-01T14:23:05.825Z,51.291157
2022-10-01T14:24:05.866Z,51.291012
2022-10-01T14:25:05.960Z,51.291019
2022-10-01T14:26:05.820Z,51.291248
2022-10-01T14:27:05.826Z,51.291271
2022-10-01T14:28:05.859Z,51.291771
2022-10-01T14:29:05.775Z,51.291275
2022-10-01T14:30:05.753Z,51.291168
2022-10-01T14:31:05.817Z,51.291115
2022-10-01T14:32:05.751Z,51.291191
2022-10-01T14:33:06.005Z,51.291111
2022-10-01T14:34:05.691Z,51.291317
2022-10-01T14:35:05.710Z,51.291428
2022-10-01T14:36:05.744Z,51.291279
2022-10-01T14:37:05.686Z,51.291210
2022-10-01T14:38:05.725Z,51.291145
2022-10-01T14:39:05.633Z,51.291431
2022-10-01T14:40:05.651Z,51.291210
2022-10-01T14:41:05.717Z,51.291180
2022-10-01T14:42:05.650Z,51.291210
2022-10-01T14:43:05.619Z,51.291225
2022-10-01T14:44:06.636Z,51.291344
2022-10-01T14:45:05.656Z,51.291275
2022-10-01T14:46:05.815Z,51.291279
2022-10-01T14:47:05.729Z,51.291183
2022-10-01T14:48:05.552Z,51.291206
2022-10-01T14:49:05.551Z,51.291298
2022-10-01T14:50:05.572Z,51.291279
2022-10-01T14:51:05.513Z,51.291290